LFOT/TUF METAR and TAF weather

Enter ICAO airport designator
Station Type Date Time Source
LFOT METAR 2020/02/24 08:30 UTC NOAA

LFOT 240830Z AUTO 22010KT 180V240 9999 OVC007 10/09 Q1024 BECMG 23015G25KT BKN012


Station Type Date Time Source
LFOT Decoded METAR 2020/02/24 08:30 UTC NOAA

Tours, France (LFOT) 47-27N 000-43E 112M
Feb 24, 2020 - 03:30 AM EST / 2020.02.24 0830 UTC
Wind: from the SW (220 degrees) at 12 MPH (10 KT) (direction variable):0
Visibility: greater than 7 mile(s):0
Sky conditions: overcast
Temperature: 50 F (10 C)
Dew Point: 48 F (9 C)
Relative Humidity: 93%
Pressure (altimeter): 30.24 in. Hg (1024 hPa)
ob: LFOT 240830Z AUTO 22010KT 180V240 9999 OVC007 10/09 Q1024 BECMG 23015G25KT BKN012
cycle: 8

Station Type Date Time Source
LFOT TAF 2020/02/24 08:21 UTC NOAA

TAF
AMD TAF
AMD LFOT 240815Z 2408/2506 23008KT 8000 BKN006
BECMG 2409/2412 23015G25KT 9999 BKN012 PROB40
TEMPO 2413/2418 23017G30KT BKN025
BECMG 2418/2420 23010KT BKN012
TEMPO 2422/2504 3000 -RADZ BKN008
BECMG 2504/2506 BKN020

Example: see airport list